Terminal Aerodrome Forecast
Issued by NWS Raleigh/Durham, NC

Home | Current Version | Previous Version | Text Only | Print | Product List | Glossary On
Versions: 1 2 3 4 5 6 7 8 9 10 11 12 13 14 15 16 17 18
000
FTUS42 KRAH 281613 AAA
TAFGSO
TAF AMD
KGSO 281613Z 2816/2912 21004KT P6SM SCT045 BKN100 OVC250
      TEMPO 2817/2818 4SM -SHRA SCT022 BKN035
     FM281800 22007KT P6SM VCTS BKN035CB
      TEMPO 2822/2902 VRB15G30KT 2SM TSRA BKN025CB
     FM290600 26004KT P6SM OVC050
     FM291000 30004KT P6SM OVC050=

USA.gov is the U.S. government's official web portal to all federal, state and local government web resources and services.